Time;durP1;ratioP1;P1;durP2;ratioP2;P2;SDS_P1;SDS_P2;PMS_P1;PMS_P2;Temp;Humidity;BMP_temperature;BMP_pressure;BME280_temperature;BME280_humidity;BME280_pressure;Samples;Min_cycle;Max_cycle;Signal;HPM_P1;HPM_P2
2022/10/09 00:01:03;;;;;;;9.27;3.80;;;;;;;;;;5011473;28;20308;-79
2022/10/09 00:03:29;;;;;;;5.00;3.40;;;;;;;;;;5011136;28;20087;-78
2022/10/09 00:05:55;;;;;;;10.88;3.85;;;;;;;;;;5028919;28;20370;-78
2022/10/09 00:08:20;;;;;;;6.68;3.58;;;;;;;;;;5028616;28;20386;-78
2022/10/09 00:10:46;;;;;;;8.32;3.70;;;;;;;;;;5029886;28;20048;-78
2022/10/09 00:13:12;;;;;;;6.85;3.33;;;;;;;;;;5029381;28;20116;-77
2022/10/09 00:15:43;;;;;;;11.40;4.55;;;;;;;;;;5012885;28;20025;-79
2022/10/09 00:18:10;;;;;;;6.28;3.67;;;;;;;;;;5029120;28;20563;-79
2022/10/09 00:20:37;;;;;;;15.10;4.28;;;;;;;;;;5029144;28;20087;-79
2022/10/09 00:23:03;;;;;;;8.48;3.75;;;;;;;;;;5028326;28;20040;-78
2022/10/09 00:25:29;;;;;;;11.15;4.45;;;;;;;;;;5016569;28;20757;-78
2022/10/09 00:27:56;;;;;;;5.45;3.28;;;;;;;;;;4975249;28;20030;-79
2022/10/09 00:30:22;;;;;;;8.25;3.83;;;;;;;;;;4990956;28;20065;-76
2022/10/09 00:32:47;;;;;;;5.70;3.40;;;;;;;;;;5009242;28;20176;-77
2022/10/09 00:35:13;;;;;;;8.48;4.97;;;;;;;;;;4991420;28;20030;-78
2022/10/09 00:37:38;;;;;;;11.70;5.10;;;;;;;;;;4991701;28;20478;-77
2022/10/09 00:40:04;;;;;;;8.50;5.10;;;;;;;;;;5009168;28;20125;-77
2022/10/09 00:42:30;;;;;;;9.43;4.65;;;;;;;;;;5009081;28;20386;-77
2022/10/09 00:44:59;;;;;;;9.18;4.55;;;;;;;;;;4991422;28;20050;-77
2022/10/09 00:48:02;;;;;;;8.82;5.28;;;;;;;;;;5009140;28;20034;-79
2022/10/09 00:50:39;;;;;;;10.40;5.30;;;;;;;;;;4948303;29;20059;-79
2022/10/09 00:53:05;;;;;;;10.70;4.57;;;;;;;;;;5000729;28;20065;-78
2022/10/09 00:55:33;;;;;;;30.00;17.17;;;;;;;;;;5009323;28;20509;-77
2022/10/09 00:58:00;;;;;;;9.70;5.35;;;;;;;;;;5028515;28;20037;-77
2022/10/09 01:00:26;;;;;;;11.90;4.72;;;;;;;;;;5028877;28;20124;-78
2022/10/09 01:02:53;;;;;;;10.43;4.50;;;;;;;;;;5029339;28;20099;-78
2022/10/09 01:05:24;;;;;;;8.48;4.85;;;;;;;;;;5010520;28;20022;-79
2022/10/09 01:08:00;;;;;;;14.63;5.90;;;;;;;;;;5010309;28;20438;-78
2022/10/09 01:10:28;;;;;;;9.38;4.40;;;;;;;;;;5010803;28;20048;-77
2022/10/09 01:13:23;;;;;;;9.77;5.32;;;;;;;;;;5010645;28;20103;-78
2022/10/09 01:15:53;;;;;;;13.82;5.60;;;;;;;;;;4998073;28;20133;-78
2022/10/09 01:18:33;;;;;;;12.53;5.57;;;;;;;;;;5030298;28;20055;-77
2022/10/09 01:21:07;;;;;;;12.77;5.60;;;;;;;;;;5032729;28;20021;-77
2022/10/09 01:23:57;;;;;;;13.47;6.10;;;;;;;;;;5014873;28;20401;-77
2022/10/09 01:26:41;;;;;;;11.85;4.70;;;;;;;;;;4995337;28;20029;-79
2022/10/09 01:29:10;;;;;;;13.38;5.10;;;;;;;;;;4994621;28;20113;-78
2022/10/09 01:31:40;;;;;;;12.17;5.67;;;;;;;;;;4994773;28;20029;-79
2022/10/09 01:34:07;;;;;;;14.52;6.55;;;;;;;;;;4994565;28;20135;-78
2022/10/09 01:36:35;;;;;;;11.83;5.70;;;;;;;;;;5012700;28;20022;-78
2022/10/09 01:39:03;;;;;;;7.30;5.30;;;;;;;;;;5012631;28;20114;-77
2022/10/09 01:41:29;;;;;;;8.73;5.78;;;;;;;;;;4994740;28;20061;-77
2022/10/09 01:43:55;;;;;;;13.15;5.93;;;;;;;;;;5012439;28;20058;-77
2022/10/09 01:46:27;;;;;;;10.10;5.97;;;;;;;;;;5012431;28;20061;-78
2022/10/09 01:49:01;;;;;;;;;;;;;;;;;;5012882;28;20394;-78
2022/10/09 01:51:34;;;;;;;10.95;5.50;;;;;;;;;;4993933;28;19921;-78
2022/10/09 01:54:03;;;;;;;10.13;5.57;;;;;;;;;;4993932;28;20042;-78
2022/10/09 01:56:33;;;;;;;13.65;6.15;;;;;;;;;;4994050;28;20137;-78
2022/10/09 01:59:04;;;;;;;11.70;5.63;;;;;;;;;;4994187;28;20025;-77
2022/10/09 02:01:34;;;;;;;10.18;5.38;;;;;;;;;;4994869;28;20159;-78
2022/10/09 02:04:04;;;;;;;11.38;5.60;;;;;;;;;;4994681;28;20076;-79
2022/10/09 02:06:30;;;;;;;12.73;6.33;;;;;;;;;;5011880;28;20029;-78
2022/10/09 02:08:56;;;;;;;14.23;5.80;;;;;;;;;;5012027;28;20026;-78
2022/10/09 02:11:26;;;;;;;11.67;6.67;;;;;;;;;;4993765;28;20466;-78
2022/10/09 02:13:53;;;;;;;9.05;5.43;;;;;;;;;;4993887;28;20029;-78
2022/10/09 02:16:26;;;;;;;10.27;4.87;;;;;;;;;;4993670;28;20030;-78
2022/10/09 02:18:59;;;;;;;14.50;5.93;;;;;;;;;;4994181;28;20034;-78
2022/10/09 02:21:38;;;;;;;14.00;5.97;;;;;;;;;;4993850;28;20030;-77
2022/10/09 02:24:06;;;;;;;9.70;5.30;;;;;;;;;;5011583;28;20030;-79
2022/10/09 02:26:32;;;;;;;9.43;5.33;;;;;;;;;;5011318;28;20554;-77
2022/10/09 02:28:57;;;;;;;13.67;5.93;;;;;;;;;;4993430;28;20062;-78
2022/10/09 02:31:27;;;;;;;9.80;5.18;;;;;;;;;;4993869;28;20032;-77
2022/10/09 02:34:07;;;;;;;9.67;5.57;;;;;;;;;;5002451;28;20057;-77
2022/10/09 02:36:33;;;;;;;11.50;4.67;;;;;;;;;;4996916;28;20033;-78
2022/10/09 02:38:59;;;;;;;8.33;5.17;;;;;;;;;;5011156;28;20088;-78
2022/10/09 02:41:25;;;;;;;14.67;5.57;;;;;;;;;;4993196;28;20037;-77
2022/10/09 02:43:51;;;;;;;11.30;5.77;;;;;;;;;;4993728;28;20041;-78
2022/10/09 02:46:17;;;;;;;7.47;5.33;;;;;;;;;;5011618;28;20478;-78
2022/10/09 02:48:43;;;;;;;9.50;5.60;;;;;;;;;;5011055;28;20033;-78
2022/10/09 02:51:09;;;;;;;10.67;5.83;;;;;;;;;;4993024;28;20050;-78
2022/10/09 02:53:35;;;;;;;13.17;5.80;;;;;;;;;;5010903;28;20034;-78
2022/10/09 02:56:01;;;;;;;8.87;5.33;;;;;;;;;;5010759;28;20029;-78
2022/10/09 02:58:29;;;;;;;11.73;5.27;;;;;;;;;;4992766;28;20034;-78
2022/10/09 03:00:55;;;;;;;10.23;6.00;;;;;;;;;;5010900;28;20037;-79
2022/10/09 03:03:20;;;;;;;12.23;6.33;;;;;;;;;;4992900;28;20033;-78
2022/10/09 03:05:46;;;;;;;10.47;5.30;;;;;;;;;;5010555;28;20113;-78
2022/10/09 03:08:13;;;;;;;8.93;5.20;;;;;;;;;;5009760;28;20040;-75
2022/10/09 03:10:39;;;;;;;16.40;6.03;;;;;;;;;;5010646;28;20057;-78
2022/10/09 03:13:06;;;;;;;15.67;5.80;;;;;;;;;;4992793;28;20034;-78
2022/10/09 03:15:35;;;;;;;12.10;5.37;;;;;;;;;;4992489;28;20025;-79
2022/10/09 03:18:01;;;;;;;12.83;5.90;;;;;;;;;;5010296;28;20029;-78
2022/10/09 03:20:28;;;;;;;13.27;5.33;;;;;;;;;;4992659;28;20124;-77
2022/10/09 03:22:55;;;;;;;23.90;6.93;;;;;;;;;;4992780;28;20140;-77
2022/10/09 03:25:21;;;;;;;13.47;5.90;;;;;;;;;;5010176;28;20029;-78
2022/10/09 03:27:46;;;;;;;10.17;6.23;;;;;;;;;;5010523;28;20041;-78
2022/10/09 03:30:12;;;;;;;15.40;6.40;;;;;;;;;;5010175;28;20033;-78
2022/10/09 03:32:37;;;;;;;17.23;7.30;;;;;;;;;;4992228;28;20432;-78
2022/10/09 03:35:03;;;;;;;15.60;8.27;;;;;;;;;;4992219;28;20462;-77
2022/10/09 03:37:29;;;;;;;22.33;9.10;;;;;;;;;;4991833;28;20137;-78
2022/10/09 03:39:54;;;;;;;20.67;9.37;;;;;;;;;;4992120;28;20041;-78
2022/10/09 03:42:20;;;;;;;18.90;8.97;;;;;;;;;;4991875;28;20490;-78
2022/10/09 03:44:45;;;;;;;17.07;8.13;;;;;;;;;;4992413;28;20027;-78
2022/10/09 03:47:11;;;;;;;16.27;9.03;;;;;;;;;;5009611;28;20416;-79
2022/10/09 03:49:36;;;;;;;18.87;8.53;;;;;;;;;;5009482;28;20101;-78
2022/10/09 03:52:02;;;;;;;17.93;7.40;;;;;;;;;;5010045;28;20084;-78
2022/10/09 03:54:27;;;;;;;18.63;7.40;;;;;;;;;;4992724;28;20367;-77
2022/10/09 03:56:52;;;;;;;16.33;7.67;;;;;;;;;;4991967;28;20037;-77
2022/10/09 03:59:18;;;;;;;17.40;7.43;;;;;;;;;;4992038;28;20061;-78
2022/10/09 04:01:43;;;;;;;16.73;7.63;;;;;;;;;;4992191;28;20053;-79
2022/10/09 04:04:09;;;;;;;16.50;7.37;;;;;;;;;;5009660;28;20037;-78
2022/10/09 04:06:34;;;;;;;12.63;6.10;;;;;;;;;;5009655;28;20037;-78
2022/10/09 04:09:00;;;;;;;16.80;7.20;;;;;;;;;;5009686;28;20041;-78
2022/10/09 04:11:25;;;;;;;16.50;6.67;;;;;;;;;;5009087;28;20374;-78
2022/10/09 04:13:51;;;;;;;15.53;7.23;;;;;;;;;;4991791;28;20182;-78
2022/10/09 04:16:16;;;;;;;13.20;6.80;;;;;;;;;;4991768;28;20386;-77
2022/10/09 04:18:43;;;;;;;8.87;6.03;;;;;;;;;;5009795;28;20045;-78
2022/10/09 04:21:08;;;;;;;15.60;6.27;;;;;;;;;;4991815;28;20037;-79
2022/10/09 04:23:34;;;;;;;11.47;5.93;;;;;;;;;;5009276;28;20332;-78
2022/10/09 04:26:00;;;;;;;12.27;5.87;;;;;;;;;;5007937;28;20048;-77
2022/10/09 04:28:27;;;;;;;9.70;5.53;;;;;;;;;;5027949;28;20123;-77
2022/10/09 04:30:53;;;;;;;14.10;6.43;;;;;;;;;;4995267;28;20033;-78
2022/10/09 04:33:18;;;;;;;17.37;6.67;;;;;;;;;;5029102;28;20028;-78
2022/10/09 04:35:48;;;;;;;9.67;5.93;;;;;;;;;;5029454;28;20037;-78
2022/10/09 04:38:13;;;;;;;15.33;6.83;;;;;;;;;;5011490;28;20351;-78
2022/10/09 04:40:39;;;;;;;8.97;5.47;;;;;;;;;;5011254;28;20041;-78
2022/10/09 04:43:05;;;;;;;14.83;6.57;;;;;;;;;;5011662;28;20036;-79
2022/10/09 04:45:31;;;;;;;10.43;5.50;;;;;;;;;;5029492;28;20032;-79
2022/10/09 04:47:56;;;;;;;11.53;6.03;;;;;;;;;;5029199;28;20033;-78
2022/10/09 04:50:22;;;;;;;12.97;8.77;;;;;;;;;;5028725;28;20061;-77
2022/10/09 04:52:48;;;;;;;10.33;5.90;;;;;;;;;;5029870;28;20266;-78
2022/10/09 04:55:13;;;;;;;13.60;8.10;;;;;;;;;;5014955;28;20414;-77
2022/10/09 04:57:39;;;;;;;12.60;6.07;;;;;;;;;;5014706;28;20617;-78
2022/10/09 05:00:05;;;;;;;17.30;6.90;;;;;;;;;;5032828;28;20026;-80
2022/10/09 05:02:30;;;;;;;18.27;6.47;;;;;;;;;;5032174;28;20025;-77
2022/10/09 05:04:56;;;;;;;13.13;6.67;;;;;;;;;;5015891;28;20181;-78
2022/10/09 05:07:22;;;;;;;9.30;5.60;;;;;;;;;;5014960;28;20033;-79
2022/10/09 05:09:48;;;;;;;18.10;6.57;;;;;;;;;;5014476;28;20033;-78
2022/10/09 05:12:15;;;;;;;12.77;6.07;;;;;;;;;;5033024;28;20058;-79
2022/10/09 05:14:41;;;;;;;19.30;7.77;;;;;;;;;;5032962;28;20048;-78
2022/10/09 05:17:06;;;;;;;9.57;5.87;;;;;;;;;;5014625;28;20029;-78
2022/10/09 05:19:32;;;;;;;16.10;5.93;;;;;;;;;;5014443;28;20687;-78
2022/10/09 05:21:59;;;;;;;13.27;6.70;;;;;;;;;;5014785;28;20093;-79
2022/10/09 05:24:25;;;;;;;18.20;9.80;;;;;;;;;;5010984;28;20026;-77
2022/10/09 05:26:50;;;;;;;20.07;10.30;;;;;;;;;;5013027;28;20028;-78
2022/10/09 05:29:15;;;;;;;17.70;6.93;;;;;;;;;;5012968;28;20473;-77
2022/10/09 05:31:43;;;;;;;13.57;6.13;;;;;;;;;;5012509;28;20179;-80
2022/10/09 05:34:08;;;;;;;12.77;6.50;;;;;;;;;;5012716;28;20109;-78
2022/10/09 05:36:34;;;;;;;12.40;6.37;;;;;;;;;;5012172;28;20034;-78
2022/10/09 05:39:00;;;;;;;14.10;6.23;;;;;;;;;;4994512;28;20034;-77
2022/10/09 05:41:27;;;;;;;11.97;6.00;;;;;;;;;;5012008;28;20030;-77
2022/10/09 05:43:53;;;;;;;17.00;6.87;;;;;;;;;;4994808;28;20080;-78
2022/10/09 05:46:23;;;;;;;14.27;7.70;;;;;;;;;;5012302;28;20018;-78
2022/10/09 05:48:54;;;;;;;13.40;7.10;;;;;;;;;;4994525;28;20029;-78
2022/10/09 05:51:21;;;;;;;14.77;7.33;;;;;;;;;;4994723;28;20473;-79
2022/10/09 05:53:47;;;;;;;16.03;7.50;;;;;;;;;;5012052;28;20030;-78
2022/10/09 05:56:16;;;;;;;13.53;7.27;;;;;;;;;;5011869;28;20029;-78
2022/10/09 05:58:42;;;;;;;17.63;8.50;;;;;;;;;;4993788;28;20041;-79
2022/10/09 06:01:08;;;;;;;20.80;7.67;;;;;;;;;;5011519;28;20061;-79
2022/10/09 06:03:37;;;;;;;16.60;7.23;;;;;;;;;;4992975;28;20466;-79
2022/10/09 06:06:05;;;;;;;12.47;7.03;;;;;;;;;;4993559;28;20037;-79
2022/10/09 06:08:35;;;;;;;15.17;6.93;;;;;;;;;;5011069;28;20097;-79
2022/10/09 06:11:30;;;;;;;14.53;7.07;;;;;;;;;;5011607;28;20041;-76
2022/10/09 06:13:56;;;;;;;14.50;7.07;;;;;;;;;;5009151;28;20048;-78
2022/10/09 06:16:24;;;;;;;15.40;6.80;;;;;;;;;;4992815;28;20034;-76
2022/10/09 06:18:51;;;;;;;11.20;7.37;;;;;;;;;;4993362;28;20055;-76
2022/10/09 06:21:17;;;;;;;15.07;7.67;;;;;;;;;;5010917;28;20091;-78
2022/10/09 06:23:43;;;;;;;11.97;6.20;;;;;;;;;;4993166;28;20128;-80
2022/10/09 06:26:11;;;;;;;13.17;7.47;;;;;;;;;;5011305;28;20026;-78
2022/10/09 06:28:38;;;;;;;14.33;6.60;;;;;;;;;;4993517;28;20128;-78
2022/10/09 06:31:15;;;;;;;11.93;6.33;;;;;;;;;;4993759;28;20037;-78
2022/10/09 06:33:42;;;;;;;11.60;6.23;;;;;;;;;;5009582;28;20026;-78
2022/10/09 06:36:13;;;;;;;12.13;6.73;;;;;;;;;;4993468;28;20040;-78
2022/10/09 06:38:39;;;;;;;10.07;6.50;;;;;;;;;;4993016;28;20021;-77
2022/10/09 06:41:26;;;;;;;11.73;6.67;;;;;;;;;;4993300;28;20485;-77
2022/10/09 06:44:00;;;;;;;11.40;6.43;;;;;;;;;;4994653;28;20036;-77
2022/10/09 06:46:29;;;;;;;13.03;6.13;;;;;;;;;;5013094;28;20033;-78
2022/10/09 06:48:55;;;;;;;9.07;6.00;;;;;;;;;;5012379;28;20046;-77
2022/10/09 06:51:22;;;;;;;16.27;6.80;;;;;;;;;;4993394;28;20054;-78
2022/10/09 06:53:50;;;;;;;11.43;6.40;;;;;;;;;;4993108;28;20042;-78
2022/10/09 06:56:18;;;;;;;12.97;6.87;;;;;;;;;;4993203;28;20097;-79
2022/10/09 06:58:44;;;;;;;13.77;7.27;;;;;;;;;;5010779;28;20035;-78
2022/10/09 07:01:17;;;;;;;10.07;6.63;;;;;;;;;;4992915;28;20030;-79
2022/10/09 07:03:46;;;;;;;13.43;7.00;;;;;;;;;;5010105;28;20030;-77
2022/10/09 07:06:11;;;;;;;12.03;6.03;;;;;;;;;;5009728;28;20060;-77
2022/10/09 07:08:38;;;;;;;15.17;6.07;;;;;;;;;;5010334;28;20450;-78
2022/10/09 07:11:35;;;;;;;13.50;6.30;;;;;;;;;;4992870;28;20041;-78
2022/10/09 07:14:02;;;;;;;16.33;7.43;;;;;;;;;;4987292;28;20190;-79
2022/10/09 07:16:34;;;;;;;15.87;7.30;;;;;;;;;;5009922;28;20653;-79
2022/10/09 07:19:06;;;;;;;16.88;7.00;;;;;;;;;;4992853;28;20022;-76
2022/10/09 07:21:32;;;;;;;12.63;7.03;;;;;;;;;;4992493;28;20075;-78
2022/10/09 07:24:02;;;;;;;14.10;6.77;;;;;;;;;;4993254;28;20025;-79
2022/10/09 07:26:29;;;;;;;19.97;14.23;;;;;;;;;;5030230;28;20099;-78
2022/10/09 07:28:55;;;;;;;14.67;7.87;;;;;;;;;;5030706;28;20040;-77
2022/10/09 07:31:21;;;;;;;20.73;7.33;;;;;;;;;;5030661;28;20025;-80
2022/10/09 07:33:51;;;;;;;14.13;6.77;;;;;;;;;;5013292;28;20029;-79
2022/10/09 07:36:18;;;;;;;13.07;6.53;;;;;;;;;;5032165;28;20033;-78
2022/10/09 07:38:47;;;;;;;17.03;7.87;;;;;;;;;;5013069;28;20112;-78
2022/10/09 07:41:13;;;;;;;10.87;6.60;;;;;;;;;;5030426;28;20030;-79
2022/10/09 07:43:40;;;;;;;13.83;6.17;;;;;;;;;;5011881;28;20570;-79
2022/10/09 07:46:11;;;;;;;10.53;6.67;;;;;;;;;;5012061;28;20393;-78
2022/10/09 07:48:36;;;;;;;9.10;5.57;;;;;;;;;;5011736;28;20041;-79
2022/10/09 07:51:13;;;;;;;14.45;6.10;;;;;;;;;;5029448;28;20481;-79
2022/10/09 07:53:39;;;;;;;10.98;5.88;;;;;;;;;;5011808;28;20070;-78
2022/10/09 07:56:05;;;;;;;11.90;6.55;;;;;;;;;;5012249;28;20450;-76
2022/10/09 07:58:31;;;;;;;11.02;5.95;;;;;;;;;;5010975;28;20120;-78
2022/10/09 08:01:06;;;;;;;10.45;6.13;;;;;;;;;;5029472;28;20078;-79
2022/10/09 08:03:33;;;;;;;11.90;7.05;;;;;;;;;;5012127;28;20037;-77
2022/10/09 08:05:59;;;;;;;13.68;7.20;;;;;;;;;;5011638;28;20030;-77
2022/10/09 08:08:25;;;;;;;8.65;6.05;;;;;;;;;;5012102;28;20025;-77
2022/10/09 08:10:50;;;;;;;13.90;7.05;;;;;;;;;;5012170;28;20040;-78
2022/10/09 08:13:16;;;;;;;12.52;6.40;;;;;;;;;;5011278;28;20025;-78
2022/10/09 08:15:43;;;;;;;14.88;6.05;;;;;;;;;;5029107;28;20035;-77
2022/10/09 08:18:09;;;;;;;11.98;7.07;;;;;;;;;;5011008;28;20390;-77
2022/10/09 08:20:35;;;;;;;12.30;7.10;;;;;;;;;;5010723;28;20033;-77
2022/10/09 08:23:00;;;;;;;12.48;6.07;;;;;;;;;;5010956;28;20064;-77
2022/10/09 08:25:26;;;;;;;11.25;5.63;;;;;;;;;;5017295;28;20026;-77
2022/10/09 08:27:52;;;;;;;11.70;5.35;;;;;;;;;;4992371;28;20485;-77
2022/10/09 08:30:18;;;;;;;9.50;4.43;;;;;;;;;;5013345;28;20045;-78
2022/10/09 08:32:43;;;;;;;9.32;4.68;;;;;;;;;;4995509;28;20063;-78
2022/10/09 08:35:09;;;;;;;15.40;5.68;;;;;;;;;;5013206;28;20072;-78
2022/10/09 08:37:34;;;;;;;10.60;5.10;;;;;;;;;;5013206;28;20104;-78
2022/10/09 08:40:00;;;;;;;10.60;5.85;;;;;;;;;;5013396;28;20458;-77
2022/10/09 08:42:42;;;;;;;12.05;5.65;;;;;;;;;;5013028;28;20374;-78
2022/10/09 08:45:15;;;;;;;12.35;5.68;;;;;;;;;;5013323;28;20033;-78
2022/10/09 08:47:59;;;;;;;15.63;7.45;;;;;;;;;;4995323;28;20048;-78
2022/10/09 08:50:29;;;;;;;12.93;6.10;;;;;;;;;;4991917;28;20099;-78
2022/10/09 08:53:22;;;;;;;7.95;4.93;;;;;;;;;;5012931;28;20148;-79
2022/10/09 08:56:00;;;;;;;11.27;5.18;;;;;;;;;;4994811;28;20029;-78
2022/10/09 08:58:30;;;;;;;13.60;5.55;;;;;;;;;;4994567;28;20026;-78
2022/10/09 09:01:14;;;;;;;9.85;5.75;;;;;;;;;;4995021;28;20022;-78
2022/10/09 09:03:42;;;;;;;12.52;5.20;;;;;;;;;;5012204;28;20645;-78
2022/10/09 09:06:24;;;;;;;11.50;5.28;;;;;;;;;;4995249;28;20018;-80
2022/10/09 09:09:04;;;;;;;10.45;5.60;;;;;;;;;;5012581;28;20045;-78
2022/10/09 09:11:41;;;;;;;11.50;4.57;;;;;;;;;;5012904;28;20042;-78
2022/10/09 09:14:19;;;;;;;8.50;4.13;;;;;;;;;;4995043;28;20029;-78
2022/10/09 09:17:10;;;;;;;9.13;4.50;;;;;;;;;;4994741;28;20034;-78
2022/10/09 09:20:07;;;;;;;12.23;4.68;;;;;;;;;;5012207;28;20030;-78
2022/10/09 09:22:33;;;;;;;8.55;4.30;;;;;;;;;;4994052;28;20054;-78
2022/10/09 09:25:00;;;;;;;10.23;4.85;;;;;;;;;;5002578;28;20052;-78
2022/10/09 09:27:35;;;;;;;9.23;4.35;;;;;;;;;;5032576;28;20436;-78
2022/10/09 09:30:12;;;;;;;8.35;4.72;;;;;;;;;;5032084;28;20401;-78
2022/10/09 09:33:10;;;;;;;11.68;4.65;;;;;;;;;;5013904;28;20029;-78
2022/10/09 09:35:59;;;;;;;8.88;4.15;;;;;;;;;;5031708;28;20037;-78
2022/10/09 09:38:25;;;;;;;10.07;4.68;;;;;;;;;;5031647;28;20025;-78
2022/10/09 09:40:52;;;;;;;11.98;4.25;;;;;;;;;;5031602;28;20112;-79
2022/10/09 09:43:20;;;;;;;7.18;3.80;;;;;;;;;;5031947;28;20044;-79
2022/10/09 09:45:47;;;;;;;11.60;3.30;;;;;;;;;;5013568;28;20032;-79
2022/10/09 09:48:33;;;;;;;8.00;3.75;;;;;;;;;;5031768;28;20052;-77
2022/10/09 09:50:59;;;;;;;13.68;3.60;;;;;;;;;;5031581;28;20123;-78
2022/10/09 09:53:36;;;;;;;6.10;3.58;;;;;;;;;;5013747;28;20103;-78
2022/10/09 09:56:03;;;;;;;12.80;3.92;;;;;;;;;;5031857;28;20650;-78
2022/10/09 09:58:35;;;;;;;7.22;3.45;;;;;;;;;;4997533;28;20133;-78
2022/10/09 10:01:05;;;;;;;11.40;3.58;;;;;;;;;;5031457;28;20369;-78
2022/10/09 10:03:32;;;;;;;13.05;4.22;;;;;;;;;;5031398;28;20029;-78
2022/10/09 10:05:57;;;;;;;8.25;3.53;;;;;;;;;;5031124;28;20074;-77
2022/10/09 10:08:31;;;;;;;5.88;2.33;;;;;;;;;;5013203;28;20125;-78
2022/10/09 10:11:00;;;;;;;4.07;2.00;;;;;;;;;;5012849;28;20025;-77
2022/10/09 10:13:48;;;;;;;5.45;2.83;;;;;;;;;;5013024;28;20033;-77
2022/10/09 10:16:22;;;;;;;6.55;2.42;;;;;;;;;;5012452;28;20029;-77
2022/10/09 10:18:48;;;;;;;4.38;1.83;;;;;;;;;;5012713;28;20029;-77
2022/10/09 10:21:17;;;;;;;4.05;1.48;;;;;;;;;;5012539;28;20473;-77
2022/10/09 10:24:04;;;;;;;9.23;2.13;;;;;;;;;;5013812;28;20365;-79
2022/10/09 10:26:35;;;;;;;5.90;2.42;;;;;;;;;;4994194;28;20063;-78
2022/10/09 10:29:04;;;;;;;5.30;1.70;;;;;;;;;;4993680;28;20042;-78
2022/10/09 10:31:46;;;;;;;6.63;1.98;;;;;;;;;;4993621;28;20034;-78
2022/10/09 10:34:21;;;;;;;7.38;1.98;;;;;;;;;;4993365;28;20136;-78
2022/10/09 10:36:53;;;;;;;9.25;2.03;;;;;;;;;;5010556;28;20041;-80
2022/10/09 10:39:44;;;;;;;6.82;2.10;;;;;;;;;;4993680;28;20030;-78
2022/10/09 10:42:18;;;;;;;4.80;2.15;;;;;;;;;;5010975;28;20474;-77
2022/10/09 10:44:54;;;;;;;6.57;4.00;;;;;;;;;;5011188;28;20060;-77
2022/10/09 10:47:26;;;;;;;7.28;2.20;;;;;;;;;;4994985;28;20044;-78
2022/10/09 10:49:52;;;;;;;12.95;2.33;;;;;;;;;;4993180;28;20048;-77
2022/10/09 10:52:59;;;;;;;6.75;3.53;;;;;;;;;;4992714;28;20656;-79
2022/10/09 10:55:52;;;;;;;2.80;1.70;;;;;;;;;;4982173;28;20041;-78
2022/10/09 10:58:26;;;;;;;6.53;1.90;;;;;;;;;;5010852;28;20040;-79
2022/10/09 11:01:17;;;;;;;6.88;2.03;;;;;;;;;;4992937;28;20129;-79
2022/10/09 11:03:54;;;;;;;4.03;2.10;;;;;;;;;;5008568;28;20042;-79
2022/10/09 11:06:37;;;;;;;8.55;2.10;;;;;;;;;;5010506;28;20072;-80
2022/10/09 11:09:22;;;;;;;6.72;2.35;;;;;;;;;;5010424;28;20033;-78
2022/10/09 11:12:16;;;;;;;4.63;2.08;;;;;;;;;;4992658;28;20033;-78
2022/10/09 11:15:30;;;;;;;6.10;2.28;;;;;;;;;;5010502;28;20529;-78
2022/10/09 11:18:22;;;;;;;7.78;2.33;;;;;;;;;;4932230;29;20039;-76
2022/10/09 11:20:51;;;;;;;4.38;2.03;;;;;;;;;;4997829;28;20053;-78
2022/10/09 11:23:27;;;;;;;7.13;2.22;;;;;;;;;;5011446;28;20033;-78
2022/10/09 11:26:10;;;;;;;5.10;2.00;;;;;;;;;;5007506;28;20099;-80
2022/10/09 11:28:44;;;;;;;4.65;2.10;;;;;;;;;;5011914;28;20033;-77
2022/10/09 11:31:18;;;;;;;7.38;1.85;;;;;;;;;;5012156;28;20029;-77
2022/10/09 11:33:53;;;;;;;7.05;2.08;;;;;;;;;;5030083;28;20029;-80
2022/10/09 11:36:31;;;;;;;9.23;2.17;;;;;;;;;;5011930;28;20128;-78
2022/10/09 11:39:00;;;;;;;5.32;1.75;;;;;;;;;;5011995;28;20029;-78
2022/10/09 11:41:27;;;;;;;7.28;1.88;;;;;;;;;;5012052;28;20031;-78
2022/10/09 11:44:26;;;;;;;7.75;1.63;;;;;;;;;;5012098;28;20502;-78
2022/10/09 11:47:11;;;;;;;5.90;2.38;;;;;;;;;;5030180;28;20437;-78
2022/10/09 11:49:57;;;;;;;8.38;2.20;;;;;;;;;;5030783;28;20037;-77
2022/10/09 11:52:29;;;;;;;4.97;1.52;;;;;;;;;;5012463;28;20041;-80
2022/10/09 11:54:54;;;;;;;9.57;1.83;;;;;;;;;;5012727;28;20040;-78
2022/10/09 11:57:27;;;;;;;3.92;1.58;;;;;;;;;;5030000;28;20030;-78
2022/10/09 12:00:07;;;;;;;2.88;1.13;;;;;;;;;;5029352;28;20132;-79
2022/10/09 12:02:33;;;;;;;3.67;1.10;;;;;;;;;;5010855;28;20094;-79
2022/10/09 12:04:59;;;;;;;8.27;1.98;;;;;;;;;;5011041;28;20445;-77
2022/10/09 12:07:34;;;;;;;7.32;1.70;;;;;;;;;;5010857;28;20056;-79
2022/10/09 12:10:23;;;;;;;6.88;1.60;;;;;;;;;;5029303;28;20029;-78
2022/10/09 12:13:34;;;;;;;6.97;1.25;;;;;;;;;;5014116;28;20124;-78
2022/10/09 12:15:59;;;;;;;4.75;1.35;;;;;;;;;;4986547;28;20471;-78
2022/10/09 12:18:32;;;;;;;7.85;1.50;;;;;;;;;;5011647;28;20666;-79
2022/10/09 12:21:01;;;;;;;6.53;2.00;;;;;;;;;;5011286;28;20055;-78
2022/10/09 12:23:30;;;;;;;6.43;1.33;;;;;;;;;;5011622;28;20095;-78
2022/10/09 12:25:57;;;;;;;5.50;1.38;;;;;;;;;;4995967;28;20057;-78
2022/10/09 12:28:22;;;;;;;3.75;1.20;;;;;;;;;;4992163;28;20026;-77
2022/10/09 12:30:49;;;;;;;7.80;1.92;;;;;;;;;;4991613;28;20157;-78
2022/10/09 12:33:24;;;;;;;4.43;1.73;;;;;;;;;;5009662;28;20026;-78
2022/10/09 12:36:04;;;;;;;4.80;1.92;;;;;;;;;;4991691;28;20039;-78
2022/10/09 12:38:30;;;;;;;5.00;1.65;;;;;;;;;;4991613;28;20030;-79
2022/10/09 12:41:01;;;;;;;4.15;1.20;;;;;;;;;;4991405;28;20026;-78
2022/10/09 12:43:29;;;;;;;1.67;1.10;;;;;;;;;;5012435;28;20506;-79
2022/10/09 12:45:55;;;;;;;8.25;1.55;;;;;;;;;;5011398;28;20068;-79
2022/10/09 12:48:24;;;;;;;3.55;1.50;;;;;;;;;;5029398;28;20176;-79
2022/10/09 12:50:51;;;;;;;10.15;3.92;;;;;;;;;;5011029;28;20634;-78
2022/10/09 12:53:25;;;;;;;5.78;1.38;;;;;;;;;;5011468;28;20057;-78
2022/10/09 12:55:59;;;;;;;4.85;1.33;;;;;;;;;;5011306;28;20021;-79
2022/10/09 12:58:28;;;;;;;2.58;1.05;;;;;;;;;;5028798;28;20160;-77
2022/10/09 13:01:06;;;;;;;4.55;1.42;;;;;;;;;;5028699;28;20052;-79
2022/10/09 13:03:31;;;;;;;3.65;1.20;;;;;;;;;;5028684;28;20347;-79
2022/10/09 13:05:57;;;;;;;5.18;1.17;;;;;;;;;;5028281;28;20029;-78
2022/10/09 13:08:29;;;;;;;1.50;1.00;;;;;;;;;;5010499;28;20490;-78
2022/10/09 13:11:07;;;;;;;3.75;0.93;;;;;;;;;;5010656;28;20048;-79
2022/10/09 13:13:32;;;;;;;6.65;2.03;;;;;;;;;;5029368;28;20021;-78
2022/10/09 13:16:01;;;;;;;5.75;1.13;;;;;;;;;;5015053;28;20030;-79
2022/10/09 13:18:27;;;;;;;4.05;1.20;;;;;;;;;;5032360;28;20025;-78
2022/10/09 13:21:03;;;;;;;4.38;1.20;;;;;;;;;;5014702;28;20110;-77
2022/10/09 13:23:33;;;;;;;3.20;0.65;;;;;;;;;;5033025;28;20033;-77
2022/10/09 13:26:01;;;;;;;6.20;1.30;;;;;;;;;;4998947;28;20485;-79
2022/10/09 13:28:28;;;;;;;4.18;1.17;;;;;;;;;;5012752;28;20022;-78
2022/10/09 13:30:53;;;;;;;3.13;1.00;;;;;;;;;;5012221;28;20374;-78
2022/10/09 13:33:19;;;;;;;7.63;1.10;;;;;;;;;;4994250;28;20049;-78
2022/10/09 13:35:45;;;;;;;3.55;1.00;;;;;;;;;;5012087;28;20442;-78
2022/10/09 13:38:16;;;;;;;6.78;1.10;;;;;;;;;;5012040;28;20021;-77
2022/10/09 13:40:42;;;;;;;10.18;1.35;;;;;;;;;;5012393;28;20018;-77
2022/10/09 13:43:12;;;;;;;4.25;1.55;;;;;;;;;;5011778;28;20129;-78
2022/10/09 13:45:38;;;;;;;4.68;1.25;;;;;;;;;;5012228;28;20057;-78
2022/10/09 13:48:03;;;;;;;6.72;1.85;;;;;;;;;;4994288;28;20445;-81
2022/10/09 13:50:29;;;;;;;2.75;1.15;;;;;;;;;;5012404;28;20111;-78
2022/10/09 13:52:54;;;;;;;5.38;2.28;;;;;;;;;;4994319;28;20502;-79
2022/10/09 13:55:20;;;;;;;7.55;1.77;;;;;;;;;;5012184;28;20025;-77
2022/10/09 13:57:45;;;;;;;5.70;1.58;;;;;;;;;;4994459;28;20095;-79
2022/10/09 14:00:12;;;;;;;4.45;1.35;;;;;;;;;;4994176;28;20025;-78
2022/10/09 14:02:38;;;;;;;4.47;1.40;;;;;;;;;;5012213;28;20656;-79
2022/10/09 14:05:04;;;;;;;6.30;1.48;;;;;;;;;;5011920;28;20040;-79
2022/10/09 14:07:29;;;;;;;5.63;1.92;;;;;;;;;;4994365;28;20022;-79
2022/10/09 14:09:55;;;;;;;5.65;1.50;;;;;;;;;;4993659;28;20034;-78
2022/10/09 14:12:20;;;;;;;6.78;1.65;;;;;;;;;;4993881;28;20548;-78
2022/10/09 14:14:46;;;;;;;4.80;1.35;;;;;;;;;;4994642;28;20037;-76
2022/10/09 14:17:11;;;;;;;4.72;1.58;;;;;;;;;;5011771;28;20017;-78
2022/10/09 14:19:37;;;;;;;9.77;1.95;;;;;;;;;;4993890;28;20045;-78
2022/10/09 14:22:02;;;;;;;4.50;1.15;;;;;;;;;;5011807;28;20156;-78
2022/10/09 14:24:28;;;;;;;3.67;1.20;;;;;;;;;;5011319;28;20026;-79
2022/10/09 14:26:53;;;;;;;8.00;1.58;;;;;;;;;;4992805;28;20025;-79
2022/10/09 14:29:18;;;;;;;3.28;1.55;;;;;;;;;;4993971;28;20124;-77
2022/10/09 14:31:44;;;;;;;5.85;1.55;;;;;;;;;;4993987;28;20029;-77
2022/10/09 14:34:12;;;;;;;5.63;1.58;;;;;;;;;;4993260;28;20034;-78
2022/10/09 14:36:37;;;;;;;4.85;1.42;;;;;;;;;;4993489;28;20121;-77
2022/10/09 14:39:03;;;;;;;8.63;2.25;;;;;;;;;;5010930;28;20192;-77
2022/10/09 14:41:28;;;;;;;3.63;1.20;;;;;;;;;;5011278;28;20026;-78
2022/10/09 14:43:58;;;;;;;4.13;1.30;;;;;;;;;;5010963;28;20034;-78
2022/10/09 14:46:24;;;;;;;4.55;1.55;;;;;;;;;;4993927;28;20030;-76
2022/10/09 14:48:53;;;;;;;5.95;1.50;;;;;;;;;;5011772;28;20022;-76
2022/10/09 14:51:21;;;;;;;3.70;1.60;;;;;;;;;;5011658;28;20054;-77
2022/10/09 14:53:47;;;;;;;2.95;1.77;;;;;;;;;;5011445;28;20101;-77